sensor_id;sensor_type;location;lat;lon;timestamp;pressure;altitude;pressure_sealevel;temperature;humidity
59106;BME280;44891;50.204;8.132;2023-04-01T00:02:41;96466.63;;;10.18;76.37
59106;BME280;44891;50.204;8.132;2023-04-01T00:06:43;96459.84;;;10.12;76.64
59106;BME280;44891;50.204;8.132;2023-04-01T00:10:45;96457.72;;;10.14;76.50
59106;BME280;44891;50.204;8.132;2023-04-01T00:14:48;96454.38;;;10.08;76.58
59106;BME280;44891;50.204;8.132;2023-04-01T00:18:50;96473.56;;;10.04;76.78
59106;BME280;44891;50.204;8.132;2023-04-01T00:22:52;96475.63;;;10.07;76.01
59106;BME280;44891;50.204;8.132;2023-04-01T00:26:54;96460.19;;;10.05;76.53
59106;BME280;44891;50.204;8.132;2023-04-01T00:30:58;96462.81;;;10.05;76.88
59106;BME280;44891;50.204;8.132;2023-04-01T00:35:00;96457.03;;;10.03;77.09
59106;BME280;44891;50.204;8.132;2023-04-01T00:39:02;96454.75;;;9.97;77.60
59106;BME280;44891;50.204;8.132;2023-04-01T00:43:08;96461.28;;;9.99;78.40
59106;BME280;44891;50.204;8.132;2023-04-01T00:47:12;96456.88;;;9.95;78.37
59106;BME280;44891;50.204;8.132;2023-04-01T00:51:15;96452.72;;;9.89;78.21
59106;BME280;44891;50.204;8.132;2023-04-01T00:55:18;96452.25;;;9.81;79.39
59106;BME280;44891;50.204;8.132;2023-04-01T00:59:23;96453.28;;;9.86;78.77
59106;BME280;44891;50.204;8.132;2023-04-01T01:03:26;96464.84;;;9.85;79.11
59106;BME280;44891;50.204;8.132;2023-04-01T01:07:30;96466.13;;;9.87;79.01
59106;BME280;44891;50.204;8.132;2023-04-01T01:11:35;96454.34;;;9.85;78.85
59106;BME280;44891;50.204;8.132;2023-04-01T01:15:40;96449.16;;;9.79;79.24
59106;BME280;44891;50.204;8.132;2023-04-01T01:19:51;96455.97;;;9.75;79.44
59106;BME280;44891;50.204;8.132;2023-04-01T01:28:24;96442.66;;;9.72;79.22
59106;BME280;44891;50.204;8.132;2023-04-01T01:32:38;96440.13;;;9.62;80.05
59106;BME280;44891;50.204;8.132;2023-04-01T01:36:43;96448.75;;;9.62;80.15
59106;BME280;44891;50.204;8.132;2023-04-01T01:40:48;96436.97;;;9.65;79.86
59106;BME280;44891;50.204;8.132;2023-04-01T01:44:52;96429.59;;;9.67;78.77
59106;BME280;44891;50.204;8.132;2023-04-01T01:48:55;96433.81;;;9.63;79.48
59106;BME280;44891;50.204;8.132;2023-04-01T01:53:03;96443.50;;;9.62;78.16
59106;BME280;44891;50.204;8.132;2023-04-01T01:57:07;96427.19;;;9.70;78.06
59106;BME280;44891;50.204;8.132;2023-04-01T02:01:14;96419.66;;;9.64;77.80
59106;BME280;44891;50.204;8.132;2023-04-01T02:05:19;96419.13;;;9.67;77.61
59106;BME280;44891;50.204;8.132;2023-04-01T02:09:24;96418.34;;;9.66;77.21
59106;BME280;44891;50.204;8.132;2023-04-01T02:13:27;96418.84;;;9.68;77.76
59106;BME280;44891;50.204;8.132;2023-04-01T02:17:31;96425.88;;;9.73;76.10
59106;BME280;44891;50.204;8.132;2023-04-01T02:21:35;96426.19;;;9.66;75.55
59106;BME280;44891;50.204;8.132;2023-04-01T02:25:39;96416.78;;;9.65;75.88
59106;BME280;44891;50.204;8.132;2023-04-01T02:29:43;96415.09;;;9.74;76.23
59106;BME280;44891;50.204;8.132;2023-04-01T02:33:44;96420.97;;;9.66;75.26
59106;BME280;44891;50.204;8.132;2023-04-01T02:37:48;96418.00;;;9.73;75.47
59106;BME280;44891;50.204;8.132;2023-04-01T02:41:52;96420.97;;;9.66;76.51
59106;BME280;44891;50.204;8.132;2023-04-01T02:45:54;96422.28;;;9.64;75.73
59106;BME280;44891;50.204;8.132;2023-04-01T02:49:56;96423.53;;;9.71;75.15
59106;BME280;44891;50.204;8.132;2023-04-01T02:53:59;96418.88;;;9.63;75.43
59106;BME280;44891;50.204;8.132;2023-04-01T02:58:02;96415.25;;;9.59;75.62
59106;BME280;44891;50.204;8.132;2023-04-01T03:02:04;96411.75;;;9.69;75.55
59106;BME280;44891;50.204;8.132;2023-04-01T03:06:07;96415.47;;;9.63;76.05
59106;BME280;44891;50.204;8.132;2023-04-01T03:10:09;96420.72;;;9.63;75.90
59106;BME280;44891;50.204;8.132;2023-04-01T03:14:13;96413.91;;;9.62;76.35
59106;BME280;44891;50.204;8.132;2023-04-01T03:18:15;96417.88;;;9.59;76.36
59106;BME280;44891;50.204;8.132;2023-04-01T03:22:17;96417.91;;;9.54;76.65
59106;BME280;44891;50.204;8.132;2023-04-01T03:26:21;96429.16;;;9.54;77.43
59106;BME280;44891;50.204;8.132;2023-04-01T03:30:24;96417.41;;;9.52;76.78
59106;BME280;44891;50.204;8.132;2023-04-01T03:34:27;96412.38;;;9.56;77.07
59106;BME280;44891;50.204;8.132;2023-04-01T03:38:29;96413.94;;;9.57;78.01
59106;BME280;44891;50.204;8.132;2023-04-01T03:42:30;96422.09;;;9.55;77.63
59106;BME280;44891;50.204;8.132;2023-04-01T03:46:34;96411.09;;;9.53;78.72
59106;BME280;44891;50.204;8.132;2023-04-01T03:50:36;96402.50;;;9.47;77.70
59106;BME280;44891;50.204;8.132;2023-04-01T03:54:38;96401.16;;;9.50;78.74
59106;BME280;44891;50.204;8.132;2023-04-01T03:58:40;96408.06;;;9.41;78.71
59106;BME280;44891;50.204;8.132;2023-04-01T04:02:44;96417.56;;;9.32;80.69
59106;BME280;44891;50.204;8.132;2023-04-01T04:06:50;96411.28;;;9.33;80.24
59106;BME280;44891;50.204;8.132;2023-04-01T04:10:56;96416.94;;;9.45;80.40
59106;BME280;44891;50.204;8.132;2023-04-01T04:14:59;96397.91;;;9.34;79.87
59106;BME280;44891;50.204;8.132;2023-04-01T04:19:02;96406.78;;;9.38;79.48
59106;BME280;44891;50.204;8.132;2023-04-01T04:23:04;96418.03;;;9.39;80.18
59106;BME280;44891;50.204;8.132;2023-04-01T04:27:06;96420.69;;;9.34;80.36
59106;BME280;44891;50.204;8.132;2023-04-01T04:31:11;96409.72;;;9.32;80.40
59106;BME280;44891;50.204;8.132;2023-04-01T04:35:17;96412.34;;;9.32;79.95
59106;BME280;44891;50.204;8.132;2023-04-01T04:39:19;96413.94;;;9.27;80.19
59106;BME280;44891;50.204;8.132;2023-04-01T04:43:21;96427.06;;;9.22;80.82
59106;BME280;44891;50.204;8.132;2023-04-01T04:47:24;96424.16;;;9.24;80.40
59106;BME280;44891;50.204;8.132;2023-04-01T04:51:27;96418.88;;;9.29;81.15
59106;BME280;44891;50.204;8.132;2023-04-01T04:55:29;96418.66;;;9.25;81.56
59106;BME280;44891;50.204;8.132;2023-04-01T04:59:52;96417.41;;;9.18;81.67
59106;BME280;44891;50.204;8.132;2023-04-01T05:04:03;96421.81;;;9.22;81.51
59106;BME280;44891;50.204;8.132;2023-04-01T05:08:07;96422.38;;;9.19;80.48
59106;BME280;44891;50.204;8.132;2023-04-01T05:12:09;96430.22;;;9.19;80.10
59106;BME280;44891;50.204;8.132;2023-04-01T05:16:42;96422.88;;;9.21;79.53
59106;BME280;44891;50.204;8.132;2023-04-01T05:20:47;96420.84;;;9.13;80.75
59106;BME280;44891;50.204;8.132;2023-04-01T05:24:50;96421.59;;;9.19;80.63
59106;BME280;44891;50.204;8.132;2023-04-01T05:28:52;96411.59;;;9.26;80.28
59106;BME280;44891;50.204;8.132;2023-04-01T05:32:55;96419.94;;;9.28;79.69
59106;BME280;44891;50.204;8.132;2023-04-01T05:36:57;96421.78;;;9.27;80.45
59106;BME280;44891;50.204;8.132;2023-04-01T05:41:00;96424.16;;;9.24;79.44
59106;BME280;44891;50.204;8.132;2023-04-01T05:45:04;96416.03;;;9.25;79.68
59106;BME280;44891;50.204;8.132;2023-04-01T05:49:24;96422.03;;;9.31;80.22
59106;BME280;44891;50.204;8.132;2023-04-01T05:53:26;96407.31;;;9.35;80.34
59106;BME280;44891;50.204;8.132;2023-04-01T05:57:29;96415.97;;;9.31;79.84
59106;BME280;44891;50.204;8.132;2023-04-01T06:01:31;96415.50;;;9.29;79.80
59106;BME280;44891;50.204;8.132;2023-04-01T06:05:36;96410.19;;;9.39;79.95
59106;BME280;44891;50.204;8.132;2023-04-01T06:09:40;96405.47;;;9.36;80.19
59106;BME280;44891;50.204;8.132;2023-04-01T06:13:47;96407.63;;;9.29;81.04
59106;BME280;44891;50.204;8.132;2023-04-01T06:17:56;96418.59;;;9.31;82.34
59106;BME280;44891;50.204;8.132;2023-04-01T06:22:07;96419.47;;;9.21;84.09
59106;BME280;44891;50.204;8.132;2023-04-01T06:26:17;96430.53;;;9.13;85.25
59106;BME280;44891;50.204;8.132;2023-04-01T06:30:32;96426.91;;;9.04;86.00
59106;BME280;44891;50.204;8.132;2023-04-01T06:34:40;96431.91;;;9.05;86.40
59106;BME280;44891;50.204;8.132;2023-04-01T06:38:56;96431.81;;;9.15;85.58
59106;BME280;44891;50.204;8.132;2023-04-01T06:43:05;96443.53;;;9.23;86.04
59106;BME280;44891;50.204;8.132;2023-04-01T06:47:39;96428.28;;;9.35;84.97
59106;BME280;44891;50.204;8.132;2023-04-01T06:52:06;96444.50;;;9.37;85.76
59106;BME280;44891;50.204;8.132;2023-04-01T06:56:31;96425.03;;;9.48;86.13
59106;BME280;44891;50.204;8.132;2023-04-01T07:00:39;96384.31;;;9.32;86.02
59106;BME280;44891;50.204;8.132;2023-04-01T07:04:44;96437.00;;;9.60;87.14
59106;BME280;44891;50.204;8.132;2023-04-01T07:08:48;96430.19;;;9.59;87.33
59106;BME280;44891;50.204;8.132;2023-04-01T07:12:51;96436.97;;;9.65;87.35
59106;BME280;44891;50.204;8.132;2023-04-01T07:17:22;96441.56;;;9.78;87.95
59106;BME280;44891;50.204;8.132;2023-04-01T07:21:28;96441.75;;;9.87;87.95
59106;BME280;44891;50.204;8.132;2023-04-01T07:25:34;96445.63;;;9.89;88.08
59106;BME280;44891;50.204;8.132;2023-04-01T07:29:57;96443.00;;;9.89;87.90
59106;BME280;44891;50.204;8.132;2023-04-01T07:34:02;96454.03;;;9.91;88.23
59106;BME280;44891;50.204;8.132;2023-04-01T07:38:13;96452.75;;;9.84;89.59
59106;BME280;44891;50.204;8.132;2023-04-01T07:42:20;96458.31;;;9.77;91.13
59106;BME280;44891;50.204;8.132;2023-04-01T07:46:28;96459.78;;;9.64;91.26
59106;BME280;44891;50.204;8.132;2023-04-01T07:50:36;96462.56;;;9.73;92.29
59106;BME280;44891;50.204;8.132;2023-04-01T07:54:43;96472.41;;;9.86;91.71
59106;BME280;44891;50.204;8.132;2023-04-01T07:58:52;96467.06;;;9.96;91.41
59106;BME280;44891;50.204;8.132;2023-04-01T08:03:28;96471.53;;;9.96;92.14
59106;BME280;44891;50.204;8.132;2023-04-01T08:07:35;96477.75;;;10.05;92.79
59106;BME280;44891;50.204;8.132;2023-04-01T08:12:07;96481.16;;;10.05;91.36
59106;BME280;44891;50.204;8.132;2023-04-01T08:16:32;96481.81;;;10.16;92.08
59106;BME280;44891;50.204;8.132;2023-04-01T08:20:41;96492.56;;;10.20;93.20
59106;BME280;44891;50.204;8.132;2023-04-01T08:24:44;96494.47;;;10.09;92.55
59106;BME280;44891;50.204;8.132;2023-04-01T08:28:49;96502.41;;;10.04;94.03
59106;BME280;44891;50.204;8.132;2023-04-01T08:32:54;96503.19;;;10.04;92.32
59106;BME280;44891;50.204;8.132;2023-04-01T08:36:58;96503.38;;;10.13;92.37
59106;BME280;44891;50.204;8.132;2023-04-01T08:41:06;96506.22;;;10.17;93.58
59106;BME280;44891;50.204;8.132;2023-04-01T08:45:39;96508.00;;;10.21;91.96
59106;BME280;44891;50.204;8.132;2023-04-01T08:49:49;96506.44;;;10.20;92.65
59106;BME280;44891;50.204;8.132;2023-04-01T08:54:23;96517.09;;;10.34;91.45
59106;BME280;44891;50.204;8.132;2023-04-01T08:58:42;96506.72;;;10.48;93.38
59106;BME280;44891;50.204;8.132;2023-04-01T09:03:05;96514.31;;;10.73;92.23
59106;BME280;44891;50.204;8.132;2023-04-01T09:07:14;96518.94;;;10.81;90.49
59106;BME280;44891;50.204;8.132;2023-04-01T09:11:28;96518.63;;;10.64;91.13
59106;BME280;44891;50.204;8.132;2023-04-01T09:16:17;96519.53;;;10.78;92.26
59106;BME280;44891;50.204;8.132;2023-04-01T09:20:29;96521.66;;;10.76;89.90
59106;BME280;44891;50.204;8.132;2023-04-01T09:24:51;96522.63;;;10.80;89.18
59106;BME280;44891;50.204;8.132;2023-04-01T09:28:59;96523.59;;;10.89;87.77
59106;BME280;44891;50.204;8.132;2023-04-01T09:33:17;96531.09;;;10.77;90.66
59106;BME280;44891;50.204;8.132;2023-04-01T09:37:33;96532.97;;;10.96;89.82
59106;BME280;44891;50.204;8.132;2023-04-01T09:41:45;96534.16;;;10.84;89.59
59106;BME280;44891;50.204;8.132;2023-04-01T09:46:10;96536.00;;;10.84;91.73
59106;BME280;44891;50.204;8.132;2023-04-01T09:54:39;96546.22;;;11.09;90.41
59106;BME280;44891;50.204;8.132;2023-04-01T09:58:51;96539.50;;;10.98;89.75
59106;BME280;44891;50.204;8.132;2023-04-01T10:08:02;96551.00;;;11.02;91.02
59106;BME280;44891;50.204;8.132;2023-04-01T10:12:17;96550.22;;;11.02;89.26
59106;BME280;44891;50.204;8.132;2023-04-01T10:20:59;96557.16;;;10.93;88.68
59106;BME280;44891;50.204;8.132;2023-04-01T10:25:18;96560.56;;;10.93;88.08
59106;BME280;44891;50.204;8.132;2023-04-01T10:47:25;96569.41;;;11.64;86.48
59106;BME280;44891;50.204;8.132;2023-04-01T10:51:38;96570.03;;;11.56;87.52
59106;BME280;44891;50.204;8.132;2023-04-01T10:56:03;96569.03;;;11.52;85.52
59106;BME280;44891;50.204;8.132;2023-04-01T11:00:47;96571.88;;;11.55;85.74
59106;BME280;44891;50.204;8.132;2023-04-01T11:10:02;96569.81;;;11.52;85.88
59106;BME280;44891;50.204;8.132;2023-04-01T11:23:03;96575.34;;;11.88;83.02
59106;BME280;44891;50.204;8.132;2023-04-01T11:27:13;96583.06;;;11.85;83.99
59106;BME280;44891;50.204;8.132;2023-04-01T11:35:51;96581.47;;;12.35;81.95
59106;BME280;44891;50.204;8.132;2023-04-01T11:39:59;96586.25;;;12.47;82.08
59106;BME280;44891;50.204;8.132;2023-04-01T11:44:33;96593.44;;;12.28;83.13
59106;BME280;44891;50.204;8.132;2023-04-01T11:48:52;96587.56;;;12.17;83.90
59106;BME280;44891;50.204;8.132;2023-04-01T11:53:10;96588.47;;;12.26;83.26
59106;BME280;44891;50.204;8.132;2023-04-01T11:57:21;96594.50;;;12.27;85.59
59106;BME280;44891;50.204;8.132;2023-04-01T12:01:35;96602.69;;;12.25;83.27
59106;BME280;44891;50.204;8.132;2023-04-01T12:05:45;96611.28;;;12.31;84.61
59106;BME280;44891;50.204;8.132;2023-04-01T12:09:52;96624.06;;;12.05;85.73
59106;BME280;44891;50.204;8.132;2023-04-01T12:14:03;96620.53;;;11.95;86.96
59106;BME280;44891;50.204;8.132;2023-04-01T12:18:11;96626.50;;;11.82;86.77
59106;BME280;44891;50.204;8.132;2023-04-01T12:22:23;96624.00;;;11.91;88.57
59106;BME280;44891;50.204;8.132;2023-04-01T12:26:30;96634.16;;;11.97;86.09
59106;BME280;44891;50.204;8.132;2023-04-01T12:30:49;96635.16;;;12.67;85.43
59106;BME280;44891;50.204;8.132;2023-04-01T12:34:59;96635.44;;;13.25;83.55
59106;BME280;44891;50.204;8.132;2023-04-01T12:39:20;96623.63;;;13.86;81.45
59106;BME280;44891;50.204;8.132;2023-04-01T12:43:28;96628.72;;;13.83;79.88
59106;BME280;44891;50.204;8.132;2023-04-01T12:47:41;96626.44;;;13.68;77.74
59106;BME280;44891;50.204;8.132;2023-04-01T12:51:59;96621.56;;;14.20;75.43
59106;BME280;44891;50.204;8.132;2023-04-01T12:56:06;96624.75;;;15.89;67.39
59106;BME280;44891;50.204;8.132;2023-04-01T13:00:23;96626.19;;;17.53;63.25
59106;BME280;44891;50.204;8.132;2023-04-01T13:04:46;96621.09;;;17.10;64.13
59106;BME280;44891;50.204;8.132;2023-04-01T13:08:54;96630.75;;;18.03;58.54
59106;BME280;44891;50.204;8.132;2023-04-01T13:13:06;96641.16;;;15.03;64.78
59106;BME280;44891;50.204;8.132;2023-04-01T13:17:11;96638.97;;;14.43;69.78
59106;BME280;44891;50.204;8.132;2023-04-01T13:21:19;96651.13;;;14.08;74.22
59106;BME280;44891;50.204;8.132;2023-04-01T13:25:24;96656.69;;;13.70;74.83
59106;BME280;44891;50.204;8.132;2023-04-01T13:29:30;96657.50;;;13.43;75.93
59106;BME280;44891;50.204;8.132;2023-04-01T13:33:35;96662.53;;;14.17;74.79
59106;BME280;44891;50.204;8.132;2023-04-01T13:37:44;96658.66;;;14.82;72.67
59106;BME280;44891;50.204;8.132;2023-04-01T13:41:58;96657.44;;;14.21;73.53
59106;BME280;44891;50.204;8.132;2023-04-01T13:46:08;96661.50;;;13.54;76.52
59106;BME280;44891;50.204;8.132;2023-04-01T13:50:23;96660.63;;;13.45;76.77
59106;BME280;44891;50.204;8.132;2023-04-01T13:54:40;96655.81;;;14.11;73.35
59106;BME280;44891;50.204;8.132;2023-04-01T13:58:55;96652.78;;;15.73;71.67
59106;BME280;44891;50.204;8.132;2023-04-01T14:03:11;96666.38;;;15.09;69.81
59106;BME280;44891;50.204;8.132;2023-04-01T14:07:20;96670.97;;;15.83;68.04
59106;BME280;44891;50.204;8.132;2023-04-01T14:11:25;96663.00;;;19.13;57.29
59106;BME280;44891;50.204;8.132;2023-04-01T14:15:33;96667.19;;;17.35;57.74
59106;BME280;44891;50.204;8.132;2023-04-01T14:19:57;96673.63;;;15.26;65.56
59106;BME280;44891;50.204;8.132;2023-04-01T14:24:06;96676.34;;;14.36;71.69
59106;BME280;44891;50.204;8.132;2023-04-01T14:28:12;96679.50;;;14.61;71.88
59106;BME280;44891;50.204;8.132;2023-04-01T14:32:22;96690.25;;;13.92;75.43
59106;BME280;44891;50.204;8.132;2023-04-01T14:36:32;96689.84;;;13.63;76.40
59106;BME280;44891;50.204;8.132;2023-04-01T14:40:40;96691.19;;;12.86;78.46
59106;BME280;44891;50.204;8.132;2023-04-01T14:49:15;96702.00;;;12.19;85.24
59106;BME280;44891;50.204;8.132;2023-04-01T14:53:24;96719.47;;;11.91;87.09
59106;BME280;44891;50.204;8.132;2023-04-01T14:57:28;96715.22;;;11.95;87.39
59106;BME280;44891;50.204;8.132;2023-04-01T15:01:33;96717.00;;;12.19;84.85
59106;BME280;44891;50.204;8.132;2023-04-01T15:05:45;96721.63;;;12.78;85.22
59106;BME280;44891;50.204;8.132;2023-04-01T15:09:51;96721.16;;;13.23;82.87
59106;BME280;44891;50.204;8.132;2023-04-01T15:14:01;96721.88;;;13.70;79.39
59106;BME280;44891;50.204;8.132;2023-04-01T15:18:09;96723.72;;;13.55;79.74
59106;BME280;44891;50.204;8.132;2023-04-01T15:22:20;96724.00;;;13.40;79.38
59106;BME280;44891;50.204;8.132;2023-04-01T15:26:32;96739.66;;;13.04;80.09
59106;BME280;44891;50.204;8.132;2023-04-01T15:30:39;96733.19;;;12.96;81.78
59106;BME280;44891;50.204;8.132;2023-04-01T15:34:50;96740.47;;;12.86;78.93
59106;BME280;44891;50.204;8.132;2023-04-01T15:38:57;96746.84;;;12.66;82.73
59106;BME280;44891;50.204;8.132;2023-04-01T15:43:04;96752.28;;;12.56;82.75
59106;BME280;44891;50.204;8.132;2023-04-01T15:47:08;96751.44;;;13.25;78.55
59106;BME280;44891;50.204;8.132;2023-04-01T15:51:30;96746.13;;;16.48;66.29
59106;BME280;44891;50.204;8.132;2023-04-01T15:55:41;96750.69;;;16.73;61.45
59106;BME280;44891;50.204;8.132;2023-04-01T15:59:53;96756.91;;;17.42;60.17
59106;BME280;44891;50.204;8.132;2023-04-01T16:03:57;96757.41;;;17.35;61.26
59106;BME280;44891;50.204;8.132;2023-04-01T16:08:09;96751.28;;;16.44;62.40
59106;BME280;44891;50.204;8.132;2023-04-01T16:12:17;96761.72;;;14.82;66.56
59106;BME280;44891;50.204;8.132;2023-04-01T16:16:23;96764.81;;;14.11;71.19
59106;BME280;44891;50.204;8.132;2023-04-01T16:20:35;96768.88;;;13.68;72.90
59106;BME280;44891;50.204;8.132;2023-04-01T16:24:43;96769.16;;;13.20;74.63
59106;BME280;44891;50.204;8.132;2023-04-01T16:28:50;96780.03;;;12.99;75.87
59106;BME280;44891;50.204;8.132;2023-04-01T16:32:57;96785.38;;;12.62;77.69
59106;BME280;44891;50.204;8.132;2023-04-01T16:37:03;96790.56;;;12.48;78.35
59106;BME280;44891;50.204;8.132;2023-04-01T16:41:11;96797.25;;;12.21;80.77
59106;BME280;44891;50.204;8.132;2023-04-01T16:49:36;96773.97;;;12.10;80.94
59106;BME280;44891;50.204;8.132;2023-04-01T16:53:40;96819.88;;;12.22;82.09
59106;BME280;44891;50.204;8.132;2023-04-01T16:57:45;96821.03;;;12.11;83.42
59106;BME280;44891;50.204;8.132;2023-04-01T17:01:51;96829.63;;;11.98;86.02
59106;BME280;44891;50.204;8.132;2023-04-01T17:05:59;96837.41;;;11.79;85.92
59106;BME280;44891;50.204;8.132;2023-04-01T17:10:25;96834.28;;;11.82;85.55
59106;BME280;44891;50.204;8.132;2023-04-01T17:14:30;96850.56;;;11.79;86.95
59106;BME280;44891;50.204;8.132;2023-04-01T17:18:35;96849.56;;;11.75;87.68
59106;BME280;44891;50.204;8.132;2023-04-01T17:22:40;96861.13;;;11.74;88.66
59106;BME280;44891;50.204;8.132;2023-04-01T17:26:46;96867.78;;;11.66;88.45
59106;BME280;44891;50.204;8.132;2023-04-01T17:30:53;96876.03;;;11.55;88.83
59106;BME280;44891;50.204;8.132;2023-04-01T17:35:00;96875.91;;;11.41;89.39
59106;BME280;44891;50.204;8.132;2023-04-01T17:39:18;96884.78;;;11.16;90.16
59106;BME280;44891;50.204;8.132;2023-04-01T17:43:25;96890.03;;;11.16;89.54
59106;BME280;44891;50.204;8.132;2023-04-01T17:47:32;96893.91;;;10.89;91.55
59106;BME280;44891;50.204;8.132;2023-04-01T17:51:40;96903.06;;;10.92;91.95
59106;BME280;44891;50.204;8.132;2023-04-01T17:55:48;96910.19;;;10.86;91.98
59106;BME280;44891;50.204;8.132;2023-04-01T17:59:53;96922.53;;;10.81;92.09
59106;BME280;44891;50.204;8.132;2023-04-01T18:04:23;96917.84;;;10.78;93.91
59106;BME280;44891;50.204;8.132;2023-04-01T18:08:36;96927.56;;;10.77;93.21
59106;BME280;44891;50.204;8.132;2023-04-01T18:12:44;96938.09;;;10.72;93.13
59106;BME280;44891;50.204;8.132;2023-04-01T18:16:59;96941.00;;;10.71;92.48
59106;BME280;44891;50.204;8.132;2023-04-01T18:21:09;96936.06;;;10.49;93.22
59106;BME280;44891;50.204;8.132;2023-04-01T18:25:19;96947.91;;;10.41;94.11
59106;BME280;44891;50.204;8.132;2023-04-01T18:29:28;96959.19;;;10.47;93.50
59106;BME280;44891;50.204;8.132;2023-04-01T18:33:34;96963.94;;;10.40;94.47
59106;BME280;44891;50.204;8.132;2023-04-01T18:37:38;96966.56;;;10.45;94.08
59106;BME280;44891;50.204;8.132;2023-04-01T18:41:43;96974.94;;;10.37;95.32
59106;BME280;44891;50.204;8.132;2023-04-01T18:45:54;96978.63;;;10.41;94.62
59106;BME280;44891;50.204;8.132;2023-04-01T18:49:59;96990.19;;;10.40;95.24
59106;BME280;44891;50.204;8.132;2023-04-01T18:54:05;96989.13;;;10.35;95.10
59106;BME280;44891;50.204;8.132;2023-04-01T18:58:18;97003.84;;;10.31;94.95
59106;BME280;44891;50.204;8.132;2023-04-01T19:02:27;96999.38;;;10.27;95.32
59106;BME280;44891;50.204;8.132;2023-04-01T19:06:34;97015.88;;;10.22;96.75
59106;BME280;44891;50.204;8.132;2023-04-01T19:10:37;97014.84;;;10.13;95.71
59106;BME280;44891;50.204;8.132;2023-04-01T19:14:47;97019.06;;;10.04;96.77
59106;BME280;44891;50.204;8.132;2023-04-01T19:18:57;97025.34;;;9.88;97.52
59106;BME280;44891;50.204;8.132;2023-04-01T19:27:24;97039.50;;;9.97;96.57
59106;BME280;44891;50.204;8.132;2023-04-01T19:31:33;97045.53;;;10.02;97.38
59106;BME280;44891;50.204;8.132;2023-04-01T19:35:40;97049.47;;;9.90;97.68
59106;BME280;44891;50.204;8.132;2023-04-01T19:39:48;97049.47;;;9.90;97.81
59106;BME280;44891;50.204;8.132;2023-04-01T19:43:54;97061.81;;;9.99;97.28
59106;BME280;44891;50.204;8.132;2023-04-01T19:48:03;97059.44;;;10.03;97.01
59106;BME280;44891;50.204;8.132;2023-04-01T19:52:09;97072.84;;;10.06;98.60
59106;BME280;44891;50.204;8.132;2023-04-01T19:56:14;97075.44;;;10.01;99.18
59106;BME280;44891;50.204;8.132;2023-04-01T20:00:20;97077.81;;;9.98;100.00
59106;BME280;44891;50.204;8.132;2023-04-01T20:04:26;97089.34;;;9.97;99.63
59106;BME280;44891;50.204;8.132;2023-04-01T20:08:33;97095.91;;;9.94;100.00
59106;BME280;44891;50.204;8.132;2023-04-01T20:12:41;97102.97;;;9.94;100.00
59106;BME280;44891;50.204;8.132;2023-04-01T20:21:06;97115.56;;;9.97;100.00
59106;BME280;44891;50.204;8.132;2023-04-01T20:25:21;97120.28;;;9.95;99.12
59106;BME280;44891;50.204;8.132;2023-04-01T20:29:27;97126.31;;;9.95;99.66
59106;BME280;44891;50.204;8.132;2023-04-01T20:33:41;97137.06;;;9.94;99.36
59106;BME280;44891;50.204;8.132;2023-04-01T20:37:48;97139.97;;;9.97;99.14
59106;BME280;44891;50.204;8.132;2023-04-01T20:42:00;97141.78;;;9.97;98.68
59106;BME280;44891;50.204;8.132;2023-04-01T20:46:08;97148.38;;;9.99;98.46
59106;BME280;44891;50.204;8.132;2023-04-01T20:50:15;97153.88;;;9.98;99.57
59106;BME280;44891;50.204;8.132;2023-04-01T20:54:26;97157.03;;;10.00;98.07
59106;BME280;44891;50.204;8.132;2023-04-01T20:58:35;97154.66;;;10.03;97.90
59106;BME280;44891;50.204;8.132;2023-04-01T21:02:48;97156.75;;;10.01;98.09
59106;BME280;44891;50.204;8.132;2023-04-01T21:11:22;97162.78;;;9.97;96.70
59106;BME280;44891;50.204;8.132;2023-04-01T21:15:33;97169.56;;;9.88;98.10
59106;BME280;44891;50.204;8.132;2023-04-01T21:19:43;97175.38;;;9.95;98.76
59106;BME280;44891;50.204;8.132;2023-04-01T21:23:53;97178.75;;;9.90;98.36
59106;BME280;44891;50.204;8.132;2023-04-01T21:28:06;97197.91;;;9.86;99.25
59106;BME280;44891;50.204;8.132;2023-04-01T21:32:16;97189.50;;;9.89;99.58
59106;BME280;44891;50.204;8.132;2023-04-01T21:36:27;97201.03;;;9.82;100.00
59106;BME280;44891;50.204;8.132;2023-04-01T21:40:41;97193.97;;;9.88;100.00
59106;BME280;44891;50.204;8.132;2023-04-01T21:44:58;97199.19;;;9.78;100.00
59106;BME280;44891;50.204;8.132;2023-04-01T21:49:11;97205.44;;;9.67;100.00
59106;BME280;44891;50.204;8.132;2023-04-01T21:57:50;97212.78;;;9.70;100.00
59106;BME280;44891;50.204;8.132;2023-04-01T22:02:03;97217.78;;;9.71;100.00
59106;BME280;44891;50.204;8.132;2023-04-01T22:06:17;97222.56;;;9.85;100.00
59106;BME280;44891;50.204;8.132;2023-04-01T22:10:25;97223.34;;;9.85;100.00
59106;BME280;44891;50.204;8.132;2023-04-01T22:14:31;97230.66;;;9.83;100.00
59106;BME280;44891;50.204;8.132;2023-04-01T22:18:37;97231.91;;;9.70;100.00
59106;BME280;44891;50.204;8.132;2023-04-01T22:22:52;97238.03;;;9.86;100.00
59106;BME280;44891;50.204;8.132;2023-04-01T22:26:58;97244.56;;;9.78;100.00
59106;BME280;44891;50.204;8.132;2023-04-01T22:31:01;97242.75;;;9.89;100.00
59106;BME280;44891;50.204;8.132;2023-04-01T22:35:04;97250.09;;;9.92;99.73
59106;BME280;44891;50.204;8.132;2023-04-01T22:39:23;97262.66;;;9.85;99.04
59106;BME280;44891;50.204;8.132;2023-04-01T22:43:28;97255.25;;;9.67;99.54
59106;BME280;44891;50.204;8.132;2023-04-01T22:47:35;97261.78;;;9.64;98.66
59106;BME280;44891;50.204;8.132;2023-04-01T22:51:42;97264.41;;;9.69;98.33
59106;BME280;44891;50.204;8.132;2023-04-01T22:55:47;97274.09;;;9.64;97.85
59106;BME280;44891;50.204;8.132;2023-04-01T22:59:52;97272.75;;;9.51;99.94
59106;BME280;44891;50.204;8.132;2023-04-01T23:03:56;97276.38;;;9.50;98.06
59106;BME280;44891;50.204;8.132;2023-04-01T23:08:01;97280.03;;;9.49;99.39
59106;BME280;44891;50.204;8.132;2023-04-01T23:12:07;97277.16;;;9.50;99.70
59106;BME280;44891;50.204;8.132;2023-04-01T23:16:11;97281.09;;;9.48;98.47
59106;BME280;44891;50.204;8.132;2023-04-01T23:20:15;97286.50;;;9.31;98.99
59106;BME280;44891;50.204;8.132;2023-04-01T23:24:19;97285.69;;;9.25;98.82
59106;BME280;44891;50.204;8.132;2023-04-01T23:28:28;97294.09;;;9.33;99.01